createdAt,value
2023-05-25T00:03:04.542Z,88.05
2023-05-25T00:07:07.413Z,88.89
2023-05-25T00:11:10.072Z,86.52
2023-05-25T00:15:14.306Z,88.97
2023-05-25T00:19:18.554Z,86.74
2023-05-25T00:23:21.395Z,90.73
2023-05-25T00:27:24.585Z,88.23
2023-05-25T00:31:29.768Z,90.33
2023-05-25T00:35:32.543Z,90.17
2023-05-25T00:39:35.256Z,90.81
2023-05-25T00:43:37.926Z,90.48
2023-05-25T00:47:42.574Z,90.95
2023-05-25T00:51:46.605Z,91.74
2023-05-25T00:55:51.929Z,89.71
2023-05-25T00:59:55.280Z,93.26
2023-05-25T01:04:00.460Z,94.99
2023-05-25T01:08:04.497Z,93.84
2023-05-25T01:12:07.167Z,94.34
2023-05-25T01:16:10.721Z,95.04
2023-05-25T01:20:15.784Z,94.99
2023-05-25T01:24:25.958Z,96.68
2023-05-25T01:28:29.402Z,92.87
2023-05-25T01:32:33.323Z,95.47
2023-05-25T01:36:35.836Z,93.40
2023-05-25T01:40:39.851Z,91.85
2023-05-25T01:44:42.646Z,91.60
2023-05-25T01:48:53.227Z,91.60
2023-05-25T01:53:00.103Z,91.33
2023-05-25T01:57:08.114Z,91.30
2023-05-25T02:01:11.202Z,90.24
2023-05-25T02:05:14.361Z,91.34
2023-05-25T02:09:17.295Z,90.24
2023-05-25T02:13:21.492Z,88.38
2023-05-25T02:17:28.712Z,89.47
2023-05-25T02:21:31.616Z,91.78
2023-05-25T02:25:34.337Z,92.12
2023-05-25T02:29:38.325Z,90.98
2023-05-25T02:33:40.980Z,95.03
2023-05-25T02:37:43.684Z,94.64
2023-05-25T02:41:46.348Z,93.59
2023-05-25T02:45:50.542Z,93.67
2023-05-25T02:49:53.193Z,94.31
2023-05-25T02:53:55.927Z,95.22
2023-05-25T02:57:59.972Z,94.97
2023-05-25T03:02:03.998Z,95.16
2023-05-25T03:06:07.641Z,94.63
2023-05-25T03:10:10.872Z,93.55
2023-05-25T03:14:13.808Z,94.90
2023-05-25T03:18:18.120Z,93.60
2023-05-25T03:22:20.827Z,94.48
2023-05-25T03:26:25.824Z,94.30
2023-05-25T03:30:29.663Z,94.31
2023-05-25T03:34:35.316Z,94.46
2023-05-25T03:38:38.124Z,95.80
2023-05-25T03:42:40.942Z,95.46
2023-05-25T03:46:43.789Z,93.75
2023-05-25T03:50:47.902Z,96.19
2023-05-25T03:54:50.664Z,96.34
2023-05-25T03:58:53.759Z,97.22
2023-05-25T04:02:57.004Z,96.98
2023-05-25T04:07:01.607Z,97.19
2023-05-25T04:11:04.261Z,97.82
2023-05-25T04:15:09.515Z,96.25
2023-05-25T04:19:12.314Z,98.09
2023-05-25T04:23:16.933Z,96.01
2023-05-25T04:27:20.466Z,97.33
2023-05-25T04:31:24.987Z,98.32
2023-05-25T04:35:28.384Z,98.06
2023-05-25T04:39:32.797Z,98.27
2023-05-25T04:43:35.553Z,97.34
2023-05-25T04:47:41.065Z,97.81
2023-05-25T04:51:43.974Z,97.12
2023-05-25T04:55:49.326Z,96.32
2023-05-25T04:59:51.974Z,97.23
2023-05-25T05:03:54.684Z,96.23
2023-05-25T05:07:57.972Z,92.81
2023-05-25T05:12:02.963Z,94.64
2023-05-25T05:16:06.577Z,83.78
2023-05-25T05:20:10.260Z,71.98
2023-05-25T05:24:12.794Z,73.97
2023-05-25T05:28:16.806Z,80.74
2023-05-25T05:32:19.601Z,80.74
2023-05-25T05:36:22.249Z,77.18
2023-05-25T05:40:26.186Z,74.38
2023-05-25T05:44:30.461Z,71.69
2023-05-25T05:48:33.182Z,71.24
2023-05-25T05:52:35.864Z,74.12
2023-05-25T05:56:38.552Z,74.34
2023-05-25T06:00:42.558Z,75.17
2023-05-25T06:04:45.698Z,68.62
2023-05-25T06:08:48.384Z,66.39
2023-05-25T06:12:51.061Z,60.65
2023-05-25T06:16:55.359Z,55.41
2023-05-25T06:20:58.071Z,50.38
2023-05-25T06:25:04.081Z,53.64
2023-05-25T06:29:06.932Z,60.77
2023-05-25T06:33:11.087Z,64.17
2023-05-25T06:37:14.902Z,65.51
2023-05-25T06:41:19.063Z,63.13
2023-05-25T06:45:22.300Z,62.76
2023-05-25T06:49:26.360Z,61.46
2023-05-25T06:53:29.020Z,65.48
2023-05-25T06:57:31.687Z,58.17
2023-05-25T07:01:34.371Z,57.45
2023-05-25T07:05:38.871Z,60.07
2023-05-25T07:09:41.669Z,58.71
2023-05-25T07:13:44.385Z,57.02
2023-05-25T07:17:47.399Z,57.24
2023-05-25T07:21:51.338Z,58.64
2023-05-25T07:25:54.016Z,61.20
2023-05-25T07:29:56.716Z,56.10
2023-05-25T07:33:59.348Z,58.67
2023-05-25T07:38:04.729Z,55.65
2023-05-25T07:42:07.733Z,57.66
2023-05-25T07:46:10.296Z,56.38
2023-05-25T07:50:12.984Z,55.11
2023-05-25T07:54:17.066Z,53.63
2023-05-25T07:58:19.753Z,54.50
2023-05-25T08:02:22.466Z,50.70
2023-05-25T08:06:25.256Z,55.06
2023-05-25T08:10:32.355Z,51.85
2023-05-25T08:14:35.088Z,56.39
2023-05-25T08:18:37.746Z,54.76
2023-05-25T08:22:40.633Z,56.58
2023-05-25T08:30:55.525Z,53.70
2023-05-25T08:34:58.308Z,56.14
2023-05-25T08:39:01.203Z,52.73
2023-05-25T08:43:05.208Z,55.56
2023-05-25T08:47:08.486Z,56.74
2023-05-25T08:51:12.426Z,55.69
2023-05-25T08:55:16.153Z,51.27
2023-05-25T08:59:30.277Z,49.17
2023-05-25T09:03:34.108Z,51.58
2023-05-25T09:07:37.338Z,46.11
2023-05-25T09:11:42.786Z,52.21
2023-05-25T09:15:48.353Z,48.20
2023-05-25T09:19:51.107Z,46.94
2023-05-25T09:23:53.606Z,44.42
2023-05-25T09:27:58.772Z,46.61
2023-05-25T09:32:05.894Z,47.63
2023-05-25T09:36:08.923Z,41.55
2023-05-25T09:40:12.806Z,47.78
2023-05-25T09:44:16.108Z,40.87
2023-05-25T09:48:21.409Z,40.17
2023-05-25T09:52:24.869Z,51.94
2023-05-25T09:56:28.073Z,43.61
2023-05-25T10:00:31.244Z,38.94
2023-05-25T10:04:35.285Z,43.04
2023-05-25T10:08:38.064Z,46.25
2023-05-25T10:12:42.612Z,45.25
2023-05-25T10:16:50.407Z,47.87
2023-05-25T10:21:00.615Z,40.05
2023-05-25T10:25:09.299Z,39.53
2023-05-25T10:29:11.991Z,39.56
2023-05-25T10:33:14.669Z,37.92
2023-05-25T10:37:19.647Z,40.58
2023-05-25T10:41:23.029Z,40.87
2023-05-25T10:45:26.015Z,41.48
2023-05-25T10:49:33.450Z,42.08
2023-05-25T10:53:37.659Z,43.41
2023-05-25T10:57:40.348Z,38.02
2023-05-25T11:01:51.159Z,39.90
2023-05-25T11:05:53.886Z,42.72
2023-05-25T11:09:59.177Z,41.32
2023-05-25T11:14:03.027Z,39.57
2023-05-25T11:18:06.018Z,49.51
2023-05-25T11:22:14.796Z,39.29
2023-05-25T11:26:21.951Z,39.30
2023-05-25T11:30:28.916Z,42.51
2023-05-25T11:34:33.174Z,38.04
2023-05-25T11:38:37.600Z,40.64
2023-05-25T11:42:43.170Z,42.30
2023-05-25T11:46:48.648Z,44.65
2023-05-25T11:51:05.476Z,41.44
2023-05-25T11:55:14.338Z,40.02
2023-05-25T11:59:18.435Z,37.87
2023-05-25T12:03:31.171Z,42.15
2023-05-25T12:07:34.303Z,37.58
2023-05-25T12:11:38.801Z,38.84
2023-05-25T12:15:44.542Z,41.68
2023-05-25T12:19:47.506Z,39.31
2023-05-25T12:23:50.868Z,40.68
2023-05-25T12:28:11.464Z,43.08
2023-05-25T12:32:15.903Z,37.58
2023-05-25T12:36:18.919Z,40.93
2023-05-25T12:40:24.586Z,40.66
2023-05-25T12:44:31.296Z,44.04
2023-05-25T12:48:35.746Z,42.41
2023-05-25T12:52:39.474Z,43.75
2023-05-25T12:56:55.165Z,43.74
2023-05-25T13:00:57.925Z,40.85
2023-05-25T13:05:02.042Z,41.00
2023-05-25T13:09:05.204Z,41.38
2023-05-25T13:13:07.948Z,41.23
2023-05-25T13:17:10.653Z,38.88
2023-05-25T13:21:14.513Z,40.73
2023-05-25T13:25:17.411Z,39.83
2023-05-25T13:29:20.148Z,39.30
2023-05-25T13:33:22.800Z,43.24
2023-05-25T13:37:27.646Z,40.30
2023-05-25T13:41:31.648Z,39.20
2023-05-25T13:45:34.439Z,38.24
2023-05-25T13:49:37.087Z,37.63
2023-05-25T13:53:41.223Z,41.27
2023-05-25T13:57:43.859Z,38.85
2023-05-25T14:01:46.712Z,44.06
2023-05-25T14:05:49.651Z,40.16
2023-05-25T14:09:53.717Z,36.41
2023-05-25T14:13:56.391Z,39.62
2023-05-25T14:17:59.076Z,37.08
2023-05-25T14:22:12.532Z,39.86
2023-05-25T14:26:18.456Z,41.72
2023-05-25T14:30:21.277Z,38.62
2023-05-25T14:34:23.923Z,42.12
2023-05-25T14:38:26.582Z,38.76
2023-05-25T14:42:30.794Z,41.94
2023-05-25T14:46:34.336Z,41.93
2023-05-25T14:50:37.043Z,35.83
2023-05-25T14:54:44.652Z,38.36
2023-05-25T14:58:48.837Z,40.37
2023-05-25T15:02:51.676Z,38.86
2023-05-25T15:06:54.312Z,44.43
2023-05-25T15:10:57.500Z,38.58
2023-05-25T15:15:01.489Z,39.95
2023-05-25T15:19:04.252Z,38.07
2023-05-25T15:23:06.893Z,37.33
2023-05-25T15:27:09.700Z,40.29
2023-05-25T15:31:13.753Z,39.93
2023-05-25T15:35:16.441Z,47.97
2023-05-25T15:39:19.131Z,38.57
2023-05-25T15:43:21.860Z,37.60
2023-05-25T15:47:26.047Z,39.29
2023-05-25T15:51:28.801Z,38.18
2023-05-25T15:55:31.387Z,38.52
2023-05-25T15:59:34.118Z,42.83
2023-05-25T16:03:38.217Z,40.47
2023-05-25T16:07:41.021Z,39.42
2023-05-25T16:11:43.973Z,38.88
2023-05-25T16:15:47.234Z,38.84
2023-05-25T16:19:51.669Z,38.75
2023-05-25T16:23:54.675Z,37.78
2023-05-25T16:27:57.379Z,42.74
2023-05-25T16:32:00.133Z,41.61
2023-05-25T16:36:04.299Z,40.92
2023-05-25T16:40:08.216Z,41.83
2023-05-25T16:44:11.563Z,40.23
2023-05-25T16:48:14.283Z,41.61
2023-05-25T16:52:18.739Z,42.33
2023-05-25T16:56:21.791Z,44.42
2023-05-25T17:00:24.662Z,38.82
2023-05-25T17:04:27.152Z,43.46
2023-05-25T17:08:31.395Z,42.40
2023-05-25T17:12:34.055Z,38.97
2023-05-25T17:16:36.750Z,42.26
2023-05-25T17:20:39.583Z,48.90
2023-05-25T17:24:43.701Z,46.76
2023-05-25T17:28:46.389Z,45.08
2023-05-25T17:32:49.153Z,49.98
2023-05-25T17:36:51.974Z,40.31
2023-05-25T17:40:56.215Z,45.64
2023-05-25T17:44:58.971Z,49.78
2023-05-25T17:49:01.726Z,46.30
2023-05-25T17:53:04.444Z,48.87
2023-05-25T17:57:08.649Z,51.67
2023-05-25T18:01:11.450Z,48.14
2023-05-25T18:05:14.237Z,48.66
2023-05-25T18:09:16.906Z,48.36
2023-05-25T18:13:21.032Z,44.86
2023-05-25T18:17:23.760Z,48.87
2023-05-25T18:21:26.530Z,51.31
2023-05-25T18:25:29.229Z,52.99
2023-05-25T18:29:33.401Z,51.80
2023-05-25T18:33:36.251Z,53.53
2023-05-25T18:37:39.062Z,55.34
2023-05-25T18:41:42.581Z,57.85
2023-05-25T18:45:46.835Z,63.47
2023-05-25T18:49:49.561Z,63.31
2023-05-25T18:53:52.437Z,65.51
2023-05-25T18:57:55.088Z,63.89
2023-05-25T19:01:59.145Z,61.04
2023-05-25T19:06:01.837Z,67.34
2023-05-25T19:10:05.014Z,69.67
2023-05-25T19:14:07.529Z,66.51
2023-05-25T19:18:11.625Z,66.85
2023-05-25T19:22:14.305Z,68.57
2023-05-25T19:26:17.241Z,72.81
2023-05-25T19:30:19.899Z,73.86
2023-05-25T19:34:23.881Z,75.25
2023-05-25T19:38:28.818Z,77.05
2023-05-25T19:42:37.150Z,73.84
2023-05-25T19:46:41.188Z,73.81
2023-05-25T19:50:45.273Z,75.75
2023-05-25T19:54:48.590Z,76.36
2023-05-25T19:58:52.315Z,76.72
2023-05-25T20:02:55.080Z,76.58
2023-05-25T20:06:59.273Z,79.02
2023-05-25T20:11:01.899Z,76.85
2023-05-25T20:15:04.986Z,76.02
2023-05-25T20:19:10.976Z,79.45
2023-05-25T20:23:14.971Z,76.35
2023-05-25T20:27:17.931Z,74.53
2023-05-25T20:31:20.591Z,80.61
2023-05-25T20:35:23.251Z,78.61
2023-05-25T20:39:27.374Z,79.33
2023-05-25T20:43:30.024Z,80.38
2023-05-25T20:47:32.781Z,78.20
2023-05-25T20:51:36.018Z,77.27
2023-05-25T20:55:39.997Z,79.77
2023-05-25T20:59:42.888Z,81.08
2023-05-25T21:03:45.937Z,76.86
2023-05-25T21:07:48.674Z,79.95
2023-05-25T21:11:52.705Z,80.02
2023-05-25T21:15:55.870Z,77.36
2023-05-25T21:19:58.972Z,78.89
2023-05-25T21:24:02.181Z,79.88
2023-05-25T21:28:06.900Z,75.45
2023-05-25T21:32:09.910Z,81.62
2023-05-25T21:36:12.570Z,78.59
2023-05-25T21:40:15.653Z,79.78
2023-05-25T21:44:19.668Z,79.33
2023-05-25T21:48:22.358Z,80.25
2023-05-25T21:52:25.248Z,81.84
2023-05-25T21:56:28.084Z,80.34
2023-05-25T22:00:35.195Z,81.09
2023-05-25T22:04:38.057Z,78.40
2023-05-25T22:08:41.161Z,79.58
2023-05-25T22:12:44.292Z,83.45
2023-05-25T22:16:48.554Z,80.60
2023-05-25T22:20:51.288Z,81.37
2023-05-25T22:24:54.059Z,82.75
2023-05-25T22:28:56.715Z,81.74
2023-05-25T22:33:00.837Z,83.76
2023-05-25T22:37:03.502Z,83.81
2023-05-25T22:41:06.279Z,82.38
2023-05-25T22:45:10.831Z,83.96
2023-05-25T22:49:14.856Z,86.33
2023-05-25T22:53:17.634Z,84.94
2023-05-25T22:57:20.690Z,85.03
2023-05-25T23:01:23.387Z,85.84
2023-05-25T23:05:27.446Z,87.75
2023-05-25T23:09:30.096Z,86.23
2023-05-25T23:13:32.732Z,85.74
2023-05-25T23:17:35.496Z,88.22
2023-05-25T23:21:39.598Z,83.32
2023-05-25T23:25:42.326Z,88.32
2023-05-25T23:29:45.094Z,87.10
2023-05-25T23:33:47.753Z,89.69
2023-05-25T23:37:52.061Z,87.95
2023-05-25T23:41:55.137Z,89.78
2023-05-25T23:45:57.850Z,90.03
2023-05-25T23:50:00.642Z,88.47
2023-05-25T23:54:04.796Z,88.58
2023-05-25T23:58:08.065Z,90.07
